sensor_id;sensor_type;location;lat;lon;timestamp;P1;durP1;ratioP1;P2;durP2;ratioP2
51814;SDS011;37874;53.158;6.766;2022-07-29T00:02:26;0.50;;;0.30;;
51814;SDS011;37874;53.158;6.766;2022-07-29T00:04:52;0.57;;;0.38;;
51814;SDS011;37874;53.158;6.766;2022-07-29T00:07:18;0.40;;;0.20;;
51814;SDS011;37874;53.158;6.766;2022-07-29T00:09:44;0.57;;;0.38;;
51814;SDS011;37874;53.158;6.766;2022-07-29T00:12:10;0.32;;;0.30;;
51814;SDS011;37874;53.158;6.766;2022-07-29T00:14:36;0.65;;;0.40;;
51814;SDS011;37874;53.158;6.766;2022-07-29T00:17:01;0.70;;;0.40;;
51814;SDS011;37874;53.158;6.766;2022-07-29T00:19:27;0.63;;;0.38;;
51814;SDS011;37874;53.158;6.766;2022-07-29T00:21:52;0.60;;;0.30;;
51814;SDS011;37874;53.158;6.766;2022-07-29T00:24:18;1.15;;;0.40;;
51814;SDS011;37874;53.158;6.766;2022-07-29T00:26:44;0.50;;;0.30;;
51814;SDS011;37874;53.158;6.766;2022-07-29T00:29:09;0.52;;;0.40;;
51814;SDS011;37874;53.158;6.766;2022-07-29T00:31:35;0.63;;;0.45;;
51814;SDS011;37874;53.158;6.766;2022-07-29T00:34:01;0.70;;;0.40;;
51814;SDS011;37874;53.158;6.766;2022-07-29T00:36:27;0.68;;;0.43;;
51814;SDS011;37874;53.158;6.766;2022-07-29T00:38:53;0.47;;;0.30;;
51814;SDS011;37874;53.158;6.766;2022-07-29T00:41:19;0.63;;;0.40;;
51814;SDS011;37874;53.158;6.766;2022-07-29T00:43:46;0.70;;;0.40;;
51814;SDS011;37874;53.158;6.766;2022-07-29T00:46:12;0.52;;;0.32;;
51814;SDS011;37874;53.158;6.766;2022-07-29T00:48:38;0.70;;;0.40;;
51814;SDS011;37874;53.158;6.766;2022-07-29T00:51:04;0.65;;;0.40;;
51814;SDS011;37874;53.158;6.766;2022-07-29T00:53:31;0.70;;;0.40;;
51814;SDS011;37874;53.158;6.766;2022-07-29T00:55:57;0.63;;;0.40;;
51814;SDS011;37874;53.158;6.766;2022-07-29T00:58:23;0.90;;;0.50;;
51814;SDS011;37874;53.158;6.766;2022-07-29T01:00:49;0.95;;;0.40;;
51814;SDS011;37874;53.158;6.766;2022-07-29T01:03:15;0.95;;;0.40;;
51814;SDS011;37874;53.158;6.766;2022-07-29T01:05:42;0.60;;;0.35;;
51814;SDS011;37874;53.158;6.766;2022-07-29T01:08:10;0.60;;;0.30;;
51814;SDS011;37874;53.158;6.766;2022-07-29T01:10:37;0.85;;;0.43;;
51814;SDS011;37874;53.158;6.766;2022-07-29T01:13:05;0.50;;;0.40;;
51814;SDS011;37874;53.158;6.766;2022-07-29T01:15:32;0.85;;;0.47;;
51814;SDS011;37874;53.158;6.766;2022-07-29T01:18:10;0.80;;;0.50;;
51814;SDS011;37874;53.158;6.766;2022-07-29T01:28:40;0.80;;;0.50;;
51814;SDS011;37874;53.158;6.766;2022-07-29T01:31:27;0.50;;;0.30;;
51814;SDS011;37874;53.158;6.766;2022-07-29T01:34:10;0.70;;;0.30;;
51814;SDS011;37874;53.158;6.766;2022-07-29T01:36:43;0.47;;;0.30;;
51814;SDS011;37874;53.158;6.766;2022-07-29T01:39:18;0.70;;;0.40;;
51814;SDS011;37874;53.158;6.766;2022-07-29T01:41:56;0.80;;;0.40;;
51814;SDS011;37874;53.158;6.766;2022-07-29T01:44:31;0.55;;;0.30;;
51814;SDS011;37874;53.158;6.766;2022-07-29T01:47:05;0.65;;;0.40;;
51814;SDS011;37874;53.158;6.766;2022-07-29T01:49:38;0.80;;;0.40;;
51814;SDS011;37874;53.158;6.766;2022-07-29T01:52:13;0.70;;;0.40;;
51814;SDS011;37874;53.158;6.766;2022-07-29T01:54:45;0.60;;;0.30;;
51814;SDS011;37874;53.158;6.766;2022-07-29T01:57:17;0.68;;;0.47;;
51814;SDS011;37874;53.158;6.766;2022-07-29T01:59:45;0.93;;;0.50;;
51814;SDS011;37874;53.158;6.766;2022-07-29T02:02:14;0.45;;;0.30;;
51814;SDS011;37874;53.158;6.766;2022-07-29T02:04:41;0.75;;;0.40;;
51814;SDS011;37874;53.158;6.766;2022-07-29T02:07:10;0.60;;;0.30;;
51814;SDS011;37874;53.158;6.766;2022-07-29T02:09:40;0.80;;;0.40;;
51814;SDS011;37874;53.158;6.766;2022-07-29T02:12:07;0.75;;;0.30;;
51814;SDS011;37874;53.158;6.766;2022-07-29T02:14:37;0.80;;;0.40;;
51814;SDS011;37874;53.158;6.766;2022-07-29T02:17:07;0.70;;;0.40;;
51814;SDS011;37874;53.158;6.766;2022-07-29T02:19:33;0.50;;;0.30;;
51814;SDS011;37874;53.158;6.766;2022-07-29T02:22:02;0.68;;;0.30;;
51814;SDS011;37874;53.158;6.766;2022-07-29T02:24:30;0.40;;;0.30;;
51814;SDS011;37874;53.158;6.766;2022-07-29T02:26:56;0.55;;;0.32;;
51814;SDS011;37874;53.158;6.766;2022-07-29T02:29:24;0.80;;;0.20;;
51814;SDS011;37874;53.158;6.766;2022-07-29T02:31:53;0.52;;;0.32;;
51814;SDS011;37874;53.158;6.766;2022-07-29T02:34:20;0.90;;;0.40;;
51814;SDS011;37874;53.158;6.766;2022-07-29T02:36:47;0.63;;;0.40;;
51814;SDS011;37874;53.158;6.766;2022-07-29T02:39:14;0.70;;;0.30;;
51814;SDS011;37874;53.158;6.766;2022-07-29T02:41:43;0.40;;;0.30;;
51814;SDS011;37874;53.158;6.766;2022-07-29T02:44:12;0.50;;;0.30;;
51814;SDS011;37874;53.158;6.766;2022-07-29T02:49:53;0.80;;;0.40;;
51814;SDS011;37874;53.158;6.766;2022-07-29T02:52:25;0.60;;;0.30;;
51814;SDS011;37874;53.158;6.766;2022-07-29T02:55:07;0.50;;;0.30;;
51814;SDS011;37874;53.158;6.766;2022-07-29T02:58:00;0.50;;;0.30;;
51814;SDS011;37874;53.158;6.766;2022-07-29T03:00:47;0.73;;;0.40;;
51814;SDS011;37874;53.158;6.766;2022-07-29T03:03:17;0.70;;;0.40;;
51814;SDS011;37874;53.158;6.766;2022-07-29T03:05:43;0.80;;;0.40;;
51814;SDS011;37874;53.158;6.766;2022-07-29T03:08:10;0.40;;;0.30;;
51814;SDS011;37874;53.158;6.766;2022-07-29T03:10:37;1.10;;;0.50;;
51814;SDS011;37874;53.158;6.766;2022-07-29T03:13:05;1.63;;;0.98;;
51814;SDS011;37874;53.158;6.766;2022-07-29T03:15:32;0.88;;;0.60;;
51814;SDS011;37874;53.158;6.766;2022-07-29T03:17:59;0.75;;;0.50;;
51814;SDS011;37874;53.158;6.766;2022-07-29T03:20:25;0.73;;;0.40;;
51814;SDS011;37874;53.158;6.766;2022-07-29T03:22:51;0.60;;;0.22;;
51814;SDS011;37874;53.158;6.766;2022-07-29T03:25:18;0.55;;;0.30;;
51814;SDS011;37874;53.158;6.766;2022-07-29T03:27:45;0.80;;;0.40;;
51814;SDS011;37874;53.158;6.766;2022-07-29T03:30:12;0.57;;;0.35;;
51814;SDS011;37874;53.158;6.766;2022-07-29T03:32:39;0.60;;;0.35;;
51814;SDS011;37874;53.158;6.766;2022-07-29T03:35:05;1.35;;;0.45;;
51814;SDS011;37874;53.158;6.766;2022-07-29T03:37:31;0.75;;;0.40;;
51814;SDS011;37874;53.158;6.766;2022-07-29T03:39:58;0.90;;;0.40;;
51814;SDS011;37874;53.158;6.766;2022-07-29T03:42:25;0.80;;;0.40;;
51814;SDS011;37874;53.158;6.766;2022-07-29T03:44:55;0.65;;;0.38;;
51814;SDS011;37874;53.158;6.766;2022-07-29T03:47:24;0.60;;;0.32;;
51814;SDS011;37874;53.158;6.766;2022-07-29T03:49:53;0.30;;;0.20;;
51814;SDS011;37874;53.158;6.766;2022-07-29T03:52:24;0.90;;;0.50;;
51814;SDS011;37874;53.158;6.766;2022-07-29T03:54:50;0.73;;;0.40;;
51814;SDS011;37874;53.158;6.766;2022-07-29T03:57:16;0.68;;;0.50;;
51814;SDS011;37874;53.158;6.766;2022-07-29T03:59:45;0.88;;;0.50;;
51814;SDS011;37874;53.158;6.766;2022-07-29T04:02:11;0.80;;;0.40;;
51814;SDS011;37874;53.158;6.766;2022-07-29T04:04:38;0.73;;;0.30;;
51814;SDS011;37874;53.158;6.766;2022-07-29T04:07:03;0.55;;;0.30;;
51814;SDS011;37874;53.158;6.766;2022-07-29T04:09:30;0.95;;;0.47;;
51814;SDS011;37874;53.158;6.766;2022-07-29T04:11:55;1.00;;;0.52;;
51814;SDS011;37874;53.158;6.766;2022-07-29T04:14:21;0.55;;;0.35;;
51814;SDS011;37874;53.158;6.766;2022-07-29T04:16:47;0.90;;;0.40;;
51814;SDS011;37874;53.158;6.766;2022-07-29T04:19:13;0.77;;;0.50;;
51814;SDS011;37874;53.158;6.766;2022-07-29T04:21:39;0.80;;;0.50;;
51814;SDS011;37874;53.158;6.766;2022-07-29T04:24:05;0.85;;;0.40;;
51814;SDS011;37874;53.158;6.766;2022-07-29T04:26:31;0.60;;;0.30;;
51814;SDS011;37874;53.158;6.766;2022-07-29T04:28:57;0.68;;;0.40;;
51814;SDS011;37874;53.158;6.766;2022-07-29T04:31:23;0.57;;;0.40;;
51814;SDS011;37874;53.158;6.766;2022-07-29T04:33:49;0.73;;;0.45;;
51814;SDS011;37874;53.158;6.766;2022-07-29T04:36:14;0.90;;;0.50;;
51814;SDS011;37874;53.158;6.766;2022-07-29T04:38:40;1.02;;;0.50;;
51814;SDS011;37874;53.158;6.766;2022-07-29T04:41:06;0.57;;;0.40;;
51814;SDS011;37874;53.158;6.766;2022-07-29T04:43:32;0.88;;;0.50;;
51814;SDS011;37874;53.158;6.766;2022-07-29T04:45:58;0.90;;;0.40;;
51814;SDS011;37874;53.158;6.766;2022-07-29T04:48:25;0.77;;;0.47;;
51814;SDS011;37874;53.158;6.766;2022-07-29T04:50:51;0.70;;;0.50;;
51814;SDS011;37874;53.158;6.766;2022-07-29T04:53:16;0.82;;;0.45;;
51814;SDS011;37874;53.158;6.766;2022-07-29T04:55:42;0.73;;;0.47;;
51814;SDS011;37874;53.158;6.766;2022-07-29T04:58:08;1.00;;;0.45;;
51814;SDS011;37874;53.158;6.766;2022-07-29T05:00:34;0.98;;;0.50;;
51814;SDS011;37874;53.158;6.766;2022-07-29T05:02:59;0.95;;;0.50;;
51814;SDS011;37874;53.158;6.766;2022-07-29T05:05:25;0.60;;;0.30;;
51814;SDS011;37874;53.158;6.766;2022-07-29T05:07:51;0.57;;;0.40;;
51814;SDS011;37874;53.158;6.766;2022-07-29T05:10:16;0.70;;;0.50;;
51814;SDS011;37874;53.158;6.766;2022-07-29T05:12:42;0.75;;;0.40;;
51814;SDS011;37874;53.158;6.766;2022-07-29T05:15:08;0.90;;;0.40;;
51814;SDS011;37874;53.158;6.766;2022-07-29T05:17:34;0.82;;;0.40;;
51814;SDS011;37874;53.158;6.766;2022-07-29T05:19:59;1.05;;;0.50;;
51814;SDS011;37874;53.158;6.766;2022-07-29T05:22:25;1.00;;;0.50;;
51814;SDS011;37874;53.158;6.766;2022-07-29T05:24:51;0.80;;;0.50;;
51814;SDS011;37874;53.158;6.766;2022-07-29T05:27:16;0.77;;;0.50;;
51814;SDS011;37874;53.158;6.766;2022-07-29T05:29:42;0.95;;;0.40;;
51814;SDS011;37874;53.158;6.766;2022-07-29T05:32:07;0.60;;;0.30;;
51814;SDS011;37874;53.158;6.766;2022-07-29T05:34:33;0.88;;;0.40;;
51814;SDS011;37874;53.158;6.766;2022-07-29T05:36:59;1.00;;;0.50;;
51814;SDS011;37874;53.158;6.766;2022-07-29T05:39:24;0.70;;;0.50;;
51814;SDS011;37874;53.158;6.766;2022-07-29T05:41:50;0.70;;;0.40;;
51814;SDS011;37874;53.158;6.766;2022-07-29T05:44:16;1.00;;;0.50;;
51814;SDS011;37874;53.158;6.766;2022-07-29T05:46:41;1.10;;;0.50;;
51814;SDS011;37874;53.158;6.766;2022-07-29T05:49:07;1.00;;;0.50;;
51814;SDS011;37874;53.158;6.766;2022-07-29T05:51:33;0.90;;;0.50;;
51814;SDS011;37874;53.158;6.766;2022-07-29T05:53:59;1.02;;;0.60;;
51814;SDS011;37874;53.158;6.766;2022-07-29T05:56:24;0.85;;;0.40;;
51814;SDS011;37874;53.158;6.766;2022-07-29T08:00:03;0.90;;;0.60;;
51814;SDS011;37874;53.158;6.766;2022-07-29T08:02:29;1.00;;;0.50;;
51814;SDS011;37874;53.158;6.766;2022-07-29T08:04:55;1.30;;;0.63;;
51814;SDS011;37874;53.158;6.766;2022-07-29T08:07:20;1.10;;;0.70;;
51814;SDS011;37874;53.158;6.766;2022-07-29T08:09:46;1.17;;;0.70;;
51814;SDS011;37874;53.158;6.766;2022-07-29T08:12:12;0.98;;;0.60;;
51814;SDS011;37874;53.158;6.766;2022-07-29T08:14:37;1.48;;;0.90;;
51814;SDS011;37874;53.158;6.766;2022-07-29T08:17:03;1.60;;;1.00;;
51814;SDS011;37874;53.158;6.766;2022-07-29T08:19:28;1.02;;;0.60;;
51814;SDS011;37874;53.158;6.766;2022-07-29T08:21:54;1.50;;;0.88;;
51814;SDS011;37874;53.158;6.766;2022-07-29T08:24:20;1.45;;;0.80;;
51814;SDS011;37874;53.158;6.766;2022-07-29T08:27:05;1.20;;;0.63;;
51814;SDS011;37874;53.158;6.766;2022-07-29T08:29:31;1.85;;;0.80;;
51814;SDS011;37874;53.158;6.766;2022-07-29T08:31:56;1.17;;;0.60;;
51814;SDS011;37874;53.158;6.766;2022-07-29T08:34:22;1.05;;;0.63;;
51814;SDS011;37874;53.158;6.766;2022-07-29T08:36:48;1.92;;;0.70;;
51814;SDS011;37874;53.158;6.766;2022-07-29T08:39:13;1.73;;;0.80;;
51814;SDS011;37874;53.158;6.766;2022-07-29T08:41:39;1.15;;;0.70;;
51814;SDS011;37874;53.158;6.766;2022-07-29T08:44:05;1.30;;;0.70;;
51814;SDS011;37874;53.158;6.766;2022-07-29T08:46:30;1.10;;;0.60;;
51814;SDS011;37874;53.158;6.766;2022-07-29T08:48:56;1.50;;;0.70;;
51814;SDS011;37874;53.158;6.766;2022-07-29T08:51:22;1.15;;;0.75;;
51814;SDS011;37874;53.158;6.766;2022-07-29T08:53:50;1.38;;;0.80;;
51814;SDS011;37874;53.158;6.766;2022-07-29T08:56:16;1.55;;;0.77;;
51814;SDS011;37874;53.158;6.766;2022-07-29T08:58:43;1.70;;;0.90;;
51814;SDS011;37874;53.158;6.766;2022-07-29T09:01:10;1.33;;;0.80;;
51814;SDS011;37874;53.158;6.766;2022-07-29T09:03:38;1.27;;;0.63;;
51814;SDS011;37874;53.158;6.766;2022-07-29T09:06:05;1.75;;;0.70;;
51814;SDS011;37874;53.158;6.766;2022-07-29T09:08:32;1.27;;;0.73;;
51814;SDS011;37874;53.158;6.766;2022-07-29T09:10:58;1.13;;;0.60;;
51814;SDS011;37874;53.158;6.766;2022-07-29T09:13:26;1.42;;;0.70;;
51814;SDS011;37874;53.158;6.766;2022-07-29T09:15:51;1.23;;;0.80;;
51814;SDS011;37874;53.158;6.766;2022-07-29T09:21:06;1.40;;;0.70;;
51814;SDS011;37874;53.158;6.766;2022-07-29T09:26:36;1.75;;;0.60;;
51814;SDS011;37874;53.158;6.766;2022-07-29T09:29:08;1.40;;;0.80;;
51814;SDS011;37874;53.158;6.766;2022-07-29T09:31:39;1.40;;;0.60;;
51814;SDS011;37874;53.158;6.766;2022-07-29T09:34:09;2.28;;;1.00;;
51814;SDS011;37874;53.158;6.766;2022-07-29T09:36:47;3.80;;;0.70;;
51814;SDS011;37874;53.158;6.766;2022-07-29T09:39:14;1.92;;;0.90;;
51814;SDS011;37874;53.158;6.766;2022-07-29T09:41:52;1.77;;;0.80;;
51814;SDS011;37874;53.158;6.766;2022-07-29T09:44:20;1.55;;;0.90;;
51814;SDS011;37874;53.158;6.766;2022-07-29T09:47:20;1.52;;;1.00;;
51814;SDS011;37874;53.158;6.766;2022-07-29T09:52:41;1.45;;;0.90;;
51814;SDS011;37874;53.158;6.766;2022-07-29T09:55:13;1.60;;;0.70;;
51814;SDS011;37874;53.158;6.766;2022-07-29T09:57:39;1.83;;;0.80;;
51814;SDS011;37874;53.158;6.766;2022-07-29T10:00:23;1.23;;;0.80;;
51814;SDS011;37874;53.158;6.766;2022-07-29T10:02:50;1.50;;;0.95;;
51814;SDS011;37874;53.158;6.766;2022-07-29T10:05:17;1.90;;;0.80;;
51814;SDS011;37874;53.158;6.766;2022-07-29T10:07:54;1.63;;;0.80;;
51814;SDS011;37874;53.158;6.766;2022-07-29T10:10:31;1.63;;;0.88;;
51814;SDS011;37874;53.158;6.766;2022-07-29T10:13:06;1.38;;;0.82;;
51814;SDS011;37874;53.158;6.766;2022-07-29T10:15:37;1.50;;;0.98;;
51814;SDS011;37874;53.158;6.766;2022-07-29T10:18:06;1.58;;;1.02;;
51814;SDS011;37874;53.158;6.766;2022-07-29T10:20:33;1.88;;;1.08;;
51814;SDS011;37874;53.158;6.766;2022-07-29T10:22:59;1.40;;;0.80;;
51814;SDS011;37874;53.158;6.766;2022-07-29T10:25:25;1.65;;;0.90;;
51814;SDS011;37874;53.158;6.766;2022-07-29T10:27:51;1.65;;;0.90;;
51814;SDS011;37874;53.158;6.766;2022-07-29T10:30:18;1.40;;;0.80;;
51814;SDS011;37874;53.158;6.766;2022-07-29T10:46:36;2.03;;;1.00;;
51814;SDS011;37874;53.158;6.766;2022-07-29T10:49:17;2.90;;;1.00;;
51814;SDS011;37874;53.158;6.766;2022-07-29T10:54:19;1.50;;;0.80;;
51814;SDS011;37874;53.158;6.766;2022-07-29T10:59:38;1.80;;;1.00;;
51814;SDS011;37874;53.158;6.766;2022-07-29T11:05:02;1.40;;;0.90;;
51814;SDS011;37874;53.158;6.766;2022-07-29T11:07:30;1.60;;;0.90;;
51814;SDS011;37874;53.158;6.766;2022-07-29T11:15:09;1.20;;;0.80;;
51814;SDS011;37874;53.158;6.766;2022-07-29T11:18:02;1.45;;;0.98;;
51814;SDS011;37874;53.158;6.766;2022-07-29T11:20:37;2.28;;;0.90;;
51814;SDS011;37874;53.158;6.766;2022-07-29T11:28:50;2.00;;;0.80;;
51814;SDS011;37874;53.158;6.766;2022-07-29T11:31:34;1.63;;;0.80;;
51814;SDS011;37874;53.158;6.766;2022-07-29T11:39:32;1.80;;;1.00;;
51814;SDS011;37874;53.158;6.766;2022-07-29T11:42:59;1.85;;;0.90;;
51814;SDS011;37874;53.158;6.766;2022-07-29T11:45:01;1.27;;;0.70;;
51814;SDS011;37874;53.158;6.766;2022-07-29T11:47:39;1.45;;;0.80;;
51814;SDS011;37874;53.158;6.766;2022-07-29T11:50:07;1.33;;;0.70;;
51814;SDS011;37874;53.158;6.766;2022-07-29T11:52:36;2.38;;;0.60;;
51814;SDS011;37874;53.158;6.766;2022-07-29T11:55:14;1.42;;;0.73;;
51814;SDS011;37874;53.158;6.766;2022-07-29T11:57:52;1.30;;;0.70;;
51814;SDS011;37874;53.158;6.766;2022-07-29T12:03:03;1.50;;;0.85;;
51814;SDS011;37874;53.158;6.766;2022-07-29T12:05:41;1.42;;;0.90;;
51814;SDS011;37874;53.158;6.766;2022-07-29T12:08:12;1.35;;;0.88;;
51814;SDS011;37874;53.158;6.766;2022-07-29T12:10:41;1.80;;;0.80;;
51814;SDS011;37874;53.158;6.766;2022-07-29T12:13:08;1.02;;;0.65;;
51814;SDS011;37874;53.158;6.766;2022-07-29T12:15:35;1.75;;;1.00;;
51814;SDS011;37874;53.158;6.766;2022-07-29T12:18:14;3.00;;;1.33;;
51814;SDS011;37874;53.158;6.766;2022-07-29T12:20:43;2.70;;;1.00;;
51814;SDS011;37874;53.158;6.766;2022-07-29T12:23:10;1.65;;;1.05;;
51814;SDS011;37874;53.158;6.766;2022-07-29T12:25:39;1.60;;;1.10;;
51814;SDS011;37874;53.158;6.766;2022-07-29T12:28:08;1.55;;;0.90;;
51814;SDS011;37874;53.158;6.766;2022-07-29T12:30:38;3.38;;;0.80;;
51814;SDS011;37874;53.158;6.766;2022-07-29T12:33:10;1.58;;;0.90;;
51814;SDS011;37874;53.158;6.766;2022-07-29T12:35:37;1.25;;;0.80;;
51814;SDS011;37874;53.158;6.766;2022-07-29T12:38:04;2.35;;;1.00;;
51814;SDS011;37874;53.158;6.766;2022-07-29T12:40:30;1.98;;;1.05;;
51814;SDS011;37874;53.158;6.766;2022-07-29T12:43:13;1.27;;;0.80;;
51814;SDS011;37874;53.158;6.766;2022-07-29T12:45:42;2.35;;;1.10;;
51814;SDS011;37874;53.158;6.766;2022-07-29T12:48:10;1.77;;;1.10;;
51814;SDS011;37874;53.158;6.766;2022-07-29T12:50:37;1.20;;;0.80;;
51814;SDS011;37874;53.158;6.766;2022-07-29T12:53:20;1.90;;;0.85;;
51814;SDS011;37874;53.158;6.766;2022-07-29T12:55:48;1.70;;;0.90;;
51814;SDS011;37874;53.158;6.766;2022-07-29T13:01:02;2.45;;;0.90;;
51814;SDS011;37874;53.158;6.766;2022-07-29T13:03:46;1.13;;;0.70;;
51814;SDS011;37874;53.158;6.766;2022-07-29T13:09:19;1.40;;;0.85;;
51814;SDS011;37874;53.158;6.766;2022-07-29T13:11:50;1.77;;;0.85;;
51814;SDS011;37874;53.158;6.766;2022-07-29T13:14:31;1.48;;;0.80;;
51814;SDS011;37874;53.158;6.766;2022-07-29T13:17:01;1.00;;;0.65;;
51814;SDS011;37874;53.158;6.766;2022-07-29T13:22:37;1.70;;;0.70;;
51814;SDS011;37874;53.158;6.766;2022-07-29T13:25:05;1.30;;;0.80;;
51814;SDS011;37874;53.158;6.766;2022-07-29T13:27:36;5.15;;;0.68;;
51814;SDS011;37874;53.158;6.766;2022-07-29T13:30:04;1.52;;;0.70;;
51814;SDS011;37874;53.158;6.766;2022-07-29T13:32:31;2.15;;;0.80;;
51814;SDS011;37874;53.158;6.766;2022-07-29T13:35:03;1.00;;;0.60;;
51814;SDS011;37874;53.158;6.766;2022-07-29T13:37:31;1.00;;;0.57;;
51814;SDS011;37874;53.158;6.766;2022-07-29T13:39:59;1.25;;;0.65;;
51814;SDS011;37874;53.158;6.766;2022-07-29T13:42:28;1.60;;;0.70;;
51814;SDS011;37874;53.158;6.766;2022-07-29T13:44:54;1.05;;;0.50;;
51814;SDS011;37874;53.158;6.766;2022-07-29T13:47:20;1.50;;;0.60;;
51814;SDS011;37874;53.158;6.766;2022-07-29T13:49:47;1.38;;;0.50;;
51814;SDS011;37874;53.158;6.766;2022-07-29T13:52:13;2.83;;;0.73;;
51814;SDS011;37874;53.158;6.766;2022-07-29T13:54:42;2.55;;;0.60;;
51814;SDS011;37874;53.158;6.766;2022-07-29T13:57:10;1.02;;;0.68;;
51814;SDS011;37874;53.158;6.766;2022-07-29T13:59:36;1.20;;;0.60;;
51814;SDS011;37874;53.158;6.766;2022-07-29T14:02:02;1.55;;;0.85;;
51814;SDS011;37874;53.158;6.766;2022-07-29T14:04:28;2.40;;;0.73;;
51814;SDS011;37874;53.158;6.766;2022-07-29T14:06:54;3.33;;;0.90;;
51814;SDS011;37874;53.158;6.766;2022-07-29T14:09:20;2.65;;;0.70;;
51814;SDS011;37874;53.158;6.766;2022-07-29T14:11:46;1.20;;;0.85;;
51814;SDS011;37874;53.158;6.766;2022-07-29T14:14:14;1.40;;;0.88;;
51814;SDS011;37874;53.158;6.766;2022-07-29T14:16:40;1.80;;;0.80;;
51814;SDS011;37874;53.158;6.766;2022-07-29T14:19:06;2.53;;;0.93;;
51814;SDS011;37874;53.158;6.766;2022-07-29T14:21:32;3.13;;;0.88;;
51814;SDS011;37874;53.158;6.766;2022-07-29T14:23:59;1.80;;;0.90;;
51814;SDS011;37874;53.158;6.766;2022-07-29T14:26:25;1.65;;;0.70;;
51814;SDS011;37874;53.158;6.766;2022-07-29T14:28:51;1.70;;;0.82;;
51814;SDS011;37874;53.158;6.766;2022-07-29T14:31:17;2.00;;;0.80;;
51814;SDS011;37874;53.158;6.766;2022-07-29T14:33:43;1.48;;;0.90;;
51814;SDS011;37874;53.158;6.766;2022-07-29T14:36:09;1.92;;;0.80;;
51814;SDS011;37874;53.158;6.766;2022-07-29T14:38:35;1.23;;;0.68;;
51814;SDS011;37874;53.158;6.766;2022-07-29T14:41:04;2.75;;;0.80;;
51814;SDS011;37874;53.158;6.766;2022-07-29T14:43:32;0.95;;;0.65;;
51814;SDS011;37874;53.158;6.766;2022-07-29T14:45:59;1.33;;;0.65;;
51814;SDS011;37874;53.158;6.766;2022-07-29T14:48:26;2.55;;;0.65;;
51814;SDS011;37874;53.158;6.766;2022-07-29T14:50:52;1.33;;;0.70;;
51814;SDS011;37874;53.158;6.766;2022-07-29T14:53:17;1.38;;;0.68;;
51814;SDS011;37874;53.158;6.766;2022-07-29T14:55:43;1.67;;;0.77;;
51814;SDS011;37874;53.158;6.766;2022-07-29T14:58:09;1.33;;;0.68;;
51814;SDS011;37874;53.158;6.766;2022-07-29T15:00:35;1.40;;;0.57;;
51814;SDS011;37874;53.158;6.766;2022-07-29T15:03:03;1.40;;;0.65;;
51814;SDS011;37874;53.158;6.766;2022-07-29T15:05:32;1.35;;;0.70;;
51814;SDS011;37874;53.158;6.766;2022-07-29T15:07:58;1.80;;;0.60;;
51814;SDS011;37874;53.158;6.766;2022-07-29T15:10:24;1.55;;;0.80;;
51814;SDS011;37874;53.158;6.766;2022-07-29T15:12:54;1.17;;;0.60;;
51814;SDS011;37874;53.158;6.766;2022-07-29T15:15:20;1.33;;;0.52;;
51814;SDS011;37874;53.158;6.766;2022-07-29T15:17:46;1.88;;;0.60;;
51814;SDS011;37874;53.158;6.766;2022-07-29T15:20:12;3.03;;;0.65;;
51814;SDS011;37874;53.158;6.766;2022-07-29T15:22:38;1.45;;;0.50;;
51814;SDS011;37874;53.158;6.766;2022-07-29T15:25:06;1.45;;;0.60;;
51814;SDS011;37874;53.158;6.766;2022-07-29T15:27:32;2.67;;;0.70;;
51814;SDS011;37874;53.158;6.766;2022-07-29T15:29:58;1.35;;;0.70;;
51814;SDS011;37874;53.158;6.766;2022-07-29T15:32:24;1.40;;;0.70;;
51814;SDS011;37874;53.158;6.766;2022-07-29T15:34:51;1.63;;;0.75;;
51814;SDS011;37874;53.158;6.766;2022-07-29T15:37:16;1.25;;;0.70;;
51814;SDS011;37874;53.158;6.766;2022-07-29T15:39:42;3.67;;;0.80;;
51814;SDS011;37874;53.158;6.766;2022-07-29T15:42:08;1.65;;;0.60;;
51814;SDS011;37874;53.158;6.766;2022-07-29T15:44:34;3.80;;;0.75;;
51814;SDS011;37874;53.158;6.766;2022-07-29T15:47:00;1.00;;;0.50;;
51814;SDS011;37874;53.158;6.766;2022-07-29T15:49:33;1.55;;;0.85;;
51814;SDS011;37874;53.158;6.766;2022-07-29T15:52:04;1.02;;;0.40;;
51814;SDS011;37874;53.158;6.766;2022-07-29T15:54:35;2.53;;;0.65;;
51814;SDS011;37874;53.158;6.766;2022-07-29T15:57:03;1.73;;;0.60;;
51814;SDS011;37874;53.158;6.766;2022-07-29T15:59:30;1.48;;;0.60;;
51814;SDS011;37874;53.158;6.766;2022-07-29T16:01:56;1.73;;;0.70;;
51814;SDS011;37874;53.158;6.766;2022-07-29T16:04:22;1.50;;;0.55;;
51814;SDS011;37874;53.158;6.766;2022-07-29T16:06:49;1.55;;;0.50;;
51814;SDS011;37874;53.158;6.766;2022-07-29T16:09:15;1.38;;;0.50;;
51814;SDS011;37874;53.158;6.766;2022-07-29T16:11:42;2.30;;;0.70;;
51814;SDS011;37874;53.158;6.766;2022-07-29T16:14:10;1.17;;;0.52;;
51814;SDS011;37874;53.158;6.766;2022-07-29T16:16:36;1.52;;;0.50;;
51814;SDS011;37874;53.158;6.766;2022-07-29T16:19:03;1.13;;;0.50;;
51814;SDS011;37874;53.158;6.766;2022-07-29T16:21:29;1.23;;;0.52;;
51814;SDS011;37874;53.158;6.766;2022-07-29T16:23:56;1.67;;;0.65;;
51814;SDS011;37874;53.158;6.766;2022-07-29T16:26:25;1.58;;;0.55;;
51814;SDS011;37874;53.158;6.766;2022-07-29T16:28:51;1.00;;;0.40;;
51814;SDS011;37874;53.158;6.766;2022-07-29T16:31:18;1.98;;;0.60;;
51814;SDS011;37874;53.158;6.766;2022-07-29T16:33:49;1.13;;;0.50;;
51814;SDS011;37874;53.158;6.766;2022-07-29T16:36:16;2.47;;;0.50;;
51814;SDS011;37874;53.158;6.766;2022-07-29T16:38:43;1.80;;;0.60;;
51814;SDS011;37874;53.158;6.766;2022-07-29T16:41:09;0.88;;;0.50;;
51814;SDS011;37874;53.158;6.766;2022-07-29T16:43:35;1.10;;;0.50;;
51814;SDS011;37874;53.158;6.766;2022-07-29T16:46:01;1.40;;;0.70;;
51814;SDS011;37874;53.158;6.766;2022-07-29T16:48:27;2.90;;;0.80;;
51814;SDS011;37874;53.158;6.766;2022-07-29T16:50:53;1.30;;;0.70;;
51814;SDS011;37874;53.158;6.766;2022-07-29T16:53:20;2.63;;;0.60;;
51814;SDS011;37874;53.158;6.766;2022-07-29T16:55:46;1.27;;;0.63;;
51814;SDS011;37874;53.158;6.766;2022-07-29T16:58:12;1.33;;;0.60;;
51814;SDS011;37874;53.158;6.766;2022-07-29T17:00:38;1.63;;;0.80;;
51814;SDS011;37874;53.158;6.766;2022-07-29T17:03:04;1.40;;;0.60;;
51814;SDS011;37874;53.158;6.766;2022-07-29T17:05:30;1.42;;;0.63;;
51814;SDS011;37874;53.158;6.766;2022-07-29T17:07:56;1.65;;;0.77;;
51814;SDS011;37874;53.158;6.766;2022-07-29T17:10:23;2.63;;;0.80;;
51814;SDS011;37874;53.158;6.766;2022-07-29T17:12:49;1.27;;;0.60;;
51814;SDS011;37874;53.158;6.766;2022-07-29T17:15:16;0.93;;;0.57;;
51814;SDS011;37874;53.158;6.766;2022-07-29T17:17:43;1.40;;;0.75;;
51814;SDS011;37874;53.158;6.766;2022-07-29T17:20:10;2.08;;;0.90;;
51814;SDS011;37874;53.158;6.766;2022-07-29T17:22:36;1.23;;;0.65;;
51814;SDS011;37874;53.158;6.766;2022-07-29T17:25:03;1.75;;;0.77;;
51814;SDS011;37874;53.158;6.766;2022-07-29T17:27:31;1.13;;;0.57;;
51814;SDS011;37874;53.158;6.766;2022-07-29T17:29:57;1.33;;;0.60;;
51814;SDS011;37874;53.158;6.766;2022-07-29T17:32:23;1.52;;;0.70;;
51814;SDS011;37874;53.158;6.766;2022-07-29T17:34:49;1.55;;;0.70;;
51814;SDS011;37874;53.158;6.766;2022-07-29T17:37:15;1.95;;;0.80;;
51814;SDS011;37874;53.158;6.766;2022-07-29T17:39:41;1.27;;;0.65;;
51814;SDS011;37874;53.158;6.766;2022-07-29T17:42:08;2.25;;;0.77;;
51814;SDS011;37874;53.158;6.766;2022-07-29T17:44:35;1.23;;;0.60;;
51814;SDS011;37874;53.158;6.766;2022-07-29T17:47:02;1.42;;;0.70;;
51814;SDS011;37874;53.158;6.766;2022-07-29T17:49:29;2.00;;;0.70;;
51814;SDS011;37874;53.158;6.766;2022-07-29T17:51:55;1.48;;;0.70;;
51814;SDS011;37874;53.158;6.766;2022-07-29T17:54:21;1.65;;;0.68;;
51814;SDS011;37874;53.158;6.766;2022-07-29T17:56:47;1.83;;;0.75;;
51814;SDS011;37874;53.158;6.766;2022-07-29T17:59:12;1.73;;;0.68;;
51814;SDS011;37874;53.158;6.766;2022-07-29T18:01:38;1.52;;;0.60;;
51814;SDS011;37874;53.158;6.766;2022-07-29T18:04:05;2.65;;;0.80;;
51814;SDS011;37874;53.158;6.766;2022-07-29T18:06:32;2.38;;;0.90;;